createdAt,value
2018-05-25T00:00:20.096Z,55.53
2018-05-25T00:02:50.557Z,55.65
2018-05-25T00:05:22.014Z,55.51
2018-05-25T00:07:52.858Z,55.09
2018-05-25T00:10:23.307Z,54.85
2018-05-25T00:12:53.742Z,54.91
2018-05-25T00:15:25.271Z,55.06
2018-05-25T00:17:55.924Z,55.31
2018-05-25T00:23:30.385Z,55.37
2018-05-25T00:26:00.888Z,55.47
2018-05-25T00:28:31.577Z,55.51
2018-05-25T00:31:02.116Z,55.43
2018-05-25T00:36:36.992Z,55.61
2018-05-25T00:39:07.558Z,55.71
2018-05-25T00:41:38.079Z,55.77
2018-05-25T00:44:08.632Z,55.58
2018-05-25T00:46:39.079Z,55.62
2018-05-25T00:53:19.015Z,55.58
2018-05-25T00:55:52.991Z,55.59
2018-05-25T00:58:24.643Z,55.54
2018-05-25T01:00:56.518Z,55.41
2018-05-25T01:03:29.025Z,55.03
2018-05-25T01:06:00.697Z,54.80
2018-05-25T01:08:35.839Z,54.77
2018-05-25T01:11:07.560Z,54.95
2018-05-25T01:13:38.290Z,55.03
2018-05-25T01:16:29.399Z,55.01
2018-05-25T01:18:59.898Z,55.19
2018-05-25T01:21:30.454Z,55.43
2018-05-25T01:24:01.576Z,55.54
2018-05-25T01:26:32.472Z,55.49
2018-05-25T01:29:02.983Z,55.63
2018-05-25T01:31:33.912Z,55.70
2018-05-25T01:34:04.459Z,55.66
2018-05-25T01:36:34.958Z,55.92
2018-05-25T01:41:45.898Z,56.10
2018-05-25T01:44:16.373Z,56.20
2018-05-25T01:46:48.373Z,56.29
2018-05-25T01:49:18.905Z,56.43
2018-05-25T01:51:49.482Z,56.50
2018-05-25T01:54:20.368Z,56.56
2018-05-25T01:56:50.894Z,56.48
2018-05-25T01:59:22.407Z,56.58
2018-05-25T02:01:53.392Z,56.50
2018-05-25T02:04:24.749Z,56.35
2018-05-25T02:06:55.326Z,56.18
2018-05-25T02:09:28.460Z,56.14
2018-05-25T02:11:58.841Z,56.25
2018-05-25T02:14:29.812Z,56.36
2018-05-25T02:17:00.434Z,56.42
2018-05-25T02:19:32.211Z,56.36
2018-05-25T02:22:04.050Z,56.28
2018-05-25T02:24:34.579Z,56.68
2018-05-25T02:27:05.172Z,56.68
2018-05-25T02:29:35.943Z,56.69
2018-05-25T02:32:06.537Z,56.86
2018-05-25T02:34:37.064Z,57.16
2018-05-25T02:37:08.960Z,57.18
2018-05-25T02:39:39.518Z,57.17
2018-05-25T02:42:10.047Z,57.33
2018-05-25T02:44:40.875Z,57.21
2018-05-25T02:47:11.458Z,56.90
2018-05-25T02:49:42.030Z,57.19
2018-05-25T02:52:13.087Z,57.16
2018-05-25T02:54:43.579Z,57.27
2018-05-25T02:57:14.193Z,57.37
2018-05-25T02:59:49.382Z,57.37
2018-05-25T03:02:20.014Z,57.65
2018-05-25T03:04:50.590Z,57.80
2018-05-25T03:07:22.407Z,57.54
2018-05-25T03:09:52.856Z,57.30
2018-05-25T03:12:23.617Z,57.01
2018-05-25T03:14:54.324Z,56.85
2018-05-25T03:17:24.962Z,56.87
2018-05-25T03:19:55.532Z,56.24
2018-05-25T03:22:26.088Z,55.78
2018-05-25T03:24:56.615Z,55.69
2018-05-25T03:27:27.103Z,55.27
2018-05-25T03:29:57.710Z,55.21
2018-05-25T03:32:28.207Z,55.27
2018-05-25T03:34:58.745Z,55.56
2018-05-25T03:37:29.255Z,55.34
2018-05-25T03:39:59.820Z,55.07
2018-05-25T03:42:30.324Z,54.73
2018-05-25T03:45:00.823Z,54.20
2018-05-25T03:47:33.105Z,54.17
2018-05-25T03:50:03.630Z,54.04
2018-05-25T03:52:34.229Z,54.04
2018-05-25T03:55:05.175Z,53.54
2018-05-25T03:57:35.704Z,53.44
2018-05-25T04:00:18.149Z,53.47
2018-05-25T04:02:48.379Z,53.75
2018-05-25T04:05:19.444Z,54.25
2018-05-25T04:07:49.991Z,54.22
2018-05-25T04:10:20.534Z,54.05
2018-05-25T04:12:51.090Z,53.88
2018-05-25T04:15:22.439Z,53.57
2018-05-25T04:17:53.034Z,53.48
2018-05-25T04:20:23.556Z,53.52
2018-05-25T04:22:54.068Z,53.64
2018-05-25T04:25:24.586Z,53.49
2018-05-25T04:27:55.223Z,53.50
2018-05-25T04:30:25.735Z,53.61
2018-05-25T04:32:56.334Z,53.34
2018-05-25T04:35:28.306Z,53.51
2018-05-25T04:37:58.923Z,53.28
2018-05-25T04:40:30.221Z,53.02
2018-05-25T04:43:00.879Z,52.91
2018-05-25T04:45:32.691Z,53.09
2018-05-25T04:48:03.255Z,52.95
2018-05-25T04:50:33.815Z,52.47
2018-05-25T04:53:04.344Z,51.94
2018-05-25T04:55:34.924Z,52.22
2018-05-25T04:58:05.596Z,52.33
2018-05-25T05:00:36.174Z,52.44
2018-05-25T05:03:06.758Z,52.10
2018-05-25T05:05:37.361Z,52.28
2018-05-25T05:08:08.062Z,52.47
2018-05-25T05:10:38.886Z,51.84
2018-05-25T05:13:09.410Z,52.06
2018-05-25T05:15:39.841Z,52.25
2018-05-25T05:18:10.482Z,51.77
2018-05-25T05:20:40.999Z,51.26
2018-05-25T05:23:13.841Z,51.02
2018-05-25T05:25:44.351Z,50.33
2018-05-25T05:28:14.882Z,50.57
2018-05-25T05:30:45.907Z,50.41
2018-05-25T05:33:16.486Z,50.47
2018-05-25T05:35:47.024Z,50.92
2018-05-25T05:38:17.877Z,51.39
2018-05-25T05:40:48.472Z,50.17
2018-05-25T05:43:20.952Z,50.76
2018-05-25T05:45:51.506Z,51.28
2018-05-25T05:48:22.125Z,51.17
2018-05-25T05:50:53.038Z,50.69
2018-05-25T05:53:23.722Z,50.70
2018-05-25T05:55:54.332Z,49.86
2018-05-25T05:58:25.182Z,50.05
2018-05-25T06:00:55.754Z,50.17
2018-05-25T06:03:26.280Z,49.95
2018-05-25T06:05:57.164Z,50.21
2018-05-25T06:08:28.592Z,49.78
2018-05-25T06:10:59.264Z,49.27
2018-05-25T06:13:29.759Z,48.80
2018-05-25T06:16:00.330Z,49.02
2018-05-25T06:18:31.098Z,48.83
2018-05-25T06:21:01.675Z,48.98
2018-05-25T06:23:32.234Z,48.45
2018-05-25T06:26:03.241Z,48.54
2018-05-25T06:28:33.798Z,48.29
2018-05-25T06:31:04.279Z,48.59
2018-05-25T06:33:35.332Z,47.67
2018-05-25T06:36:05.891Z,47.42
2018-05-25T06:38:36.410Z,46.78
2018-05-25T06:41:06.960Z,47.63
2018-05-25T06:43:37.689Z,46.58
2018-05-25T06:46:08.208Z,46.74
2018-05-25T06:48:38.691Z,47.26
2018-05-25T06:51:09.241Z,47.99
2018-05-25T06:53:41.221Z,47.39
2018-05-25T06:56:11.799Z,48.07
2018-05-25T06:58:42.315Z,47.08
2018-05-25T07:01:12.870Z,47.28
2018-05-25T07:03:43.399Z,46.89
2018-05-25T07:06:14.011Z,47.14
2018-05-25T07:08:44.580Z,47.32
2018-05-25T07:11:15.173Z,46.56
2018-05-25T07:13:45.695Z,46.98
2018-05-25T07:16:16.255Z,46.46
2018-05-25T07:18:47.143Z,46.57
2018-05-25T07:21:17.814Z,46.72
2018-05-25T07:23:48.359Z,47.24
2018-05-25T07:26:18.887Z,47.16
2018-05-25T07:28:49.933Z,47.23
2018-05-25T07:31:21.561Z,46.48
2018-05-25T07:33:52.390Z,46.08
2018-05-25T07:36:22.908Z,44.34
2018-05-25T07:38:53.487Z,45.17
2018-05-25T07:41:24.255Z,45.08
2018-05-25T07:43:54.907Z,44.05
2018-05-25T07:46:25.431Z,43.61
2018-05-25T07:48:55.953Z,43.38
2018-05-25T07:51:26.519Z,42.80
2018-05-25T07:53:57.061Z,42.48
2018-05-25T07:56:28.249Z,42.65
2018-05-25T07:58:58.742Z,42.08
2018-05-25T08:01:29.409Z,41.31
2018-05-25T08:04:00.585Z,41.22
2018-05-25T08:06:31.103Z,40.85
2018-05-25T08:09:02.487Z,40.62
2018-05-25T08:11:33.335Z,40.78
2018-05-25T08:14:03.863Z,41.73
2018-05-25T08:16:34.367Z,40.94
2018-05-25T08:19:04.974Z,40.46
2018-05-25T08:21:36.170Z,40.37
2018-05-25T08:24:06.902Z,40.27
2018-05-25T08:26:37.409Z,39.89
2018-05-25T08:29:07.934Z,39.49
2018-05-25T08:31:40.857Z,38.34
2018-05-25T08:34:11.609Z,38.42
2018-05-25T08:36:42.264Z,38.58
2018-05-25T08:39:13.219Z,37.94
2018-05-25T08:41:46.805Z,37.39
2018-05-25T08:46:50.305Z,38.24
2018-05-25T08:49:21.003Z,38.25
2018-05-25T08:51:52.061Z,37.97
2018-05-25T08:54:22.723Z,38.19
2018-05-25T08:56:53.403Z,36.50
2018-05-25T08:59:24.203Z,36.06
2018-05-25T09:01:54.748Z,35.89
2018-05-25T09:04:25.371Z,36.05
2018-05-25T09:06:56.226Z,36.00
2018-05-25T09:09:26.802Z,36.95
2018-05-25T09:12:00.064Z,35.98
2018-05-25T09:14:31.779Z,35.59
2018-05-25T09:17:03.087Z,35.99
2018-05-25T09:19:33.702Z,37.28
2018-05-25T09:22:04.397Z,38.22
2018-05-25T09:24:35.783Z,38.00
2018-05-25T09:27:06.827Z,38.38
2018-05-25T09:29:38.231Z,38.33
2018-05-25T09:32:08.763Z,37.23
2018-05-25T09:34:39.791Z,37.62
2018-05-25T09:37:10.339Z,38.05
2018-05-25T09:39:40.974Z,37.14
2018-05-25T09:42:11.756Z,36.50
2018-05-25T09:44:42.331Z,36.51
2018-05-25T09:47:13.323Z,36.53
2018-05-25T09:49:44.763Z,36.07
2018-05-25T09:52:15.451Z,36.78
2018-05-25T09:54:46.382Z,36.81
2018-05-25T09:57:18.897Z,36.37
2018-05-25T09:59:50.047Z,35.40
2018-05-25T10:02:20.578Z,35.84
2018-05-25T10:04:51.104Z,36.54
2018-05-25T10:07:21.821Z,36.30
2018-05-25T10:09:52.313Z,36.05
2018-05-25T10:12:23.323Z,35.61
2018-05-25T10:14:56.470Z,35.33
2018-05-25T10:17:27.235Z,35.37
2018-05-25T10:19:57.847Z,34.89
2018-05-25T10:22:28.501Z,34.63
2018-05-25T10:25:00.643Z,34.05
2018-05-25T10:27:31.369Z,33.60
2018-05-25T10:30:04.203Z,32.68
2018-05-25T10:32:36.150Z,32.22
2018-05-25T10:35:06.808Z,32.34
2018-05-25T10:37:38.400Z,31.89
2018-05-25T10:40:09.440Z,30.98
2018-05-25T10:42:40.047Z,31.40
2018-05-25T10:45:15.568Z,31.47
2018-05-25T10:47:46.255Z,31.90
2018-05-25T10:50:16.893Z,31.80
2018-05-25T10:52:48.792Z,31.74
2018-05-25T10:55:19.352Z,31.27
2018-05-25T10:57:49.895Z,30.88
2018-05-25T11:00:20.458Z,30.54
2018-05-25T11:02:51.065Z,30.27
2018-05-25T11:05:21.978Z,30.37
2018-05-25T11:07:53.079Z,31.07
2018-05-25T11:10:23.649Z,30.99
2018-05-25T11:12:54.575Z,30.63
2018-05-25T11:15:25.163Z,31.04
2018-05-25T11:17:55.491Z,30.95
2018-05-25T11:20:26.083Z,30.73
2018-05-25T11:22:56.614Z,30.99
2018-05-25T11:25:27.554Z,30.03
2018-05-25T11:27:59.101Z,28.89
2018-05-25T11:30:29.769Z,28.91
2018-05-25T11:33:00.942Z,28.51
2018-05-25T11:35:31.579Z,28.94
2018-05-25T11:38:02.130Z,28.56
2018-05-25T11:40:34.651Z,27.87
2018-05-25T11:43:05.314Z,27.48
2018-05-25T11:45:36.352Z,27.33
2018-05-25T11:48:06.980Z,26.24
2018-05-25T11:50:37.791Z,26.57
2018-05-25T11:53:08.536Z,26.04
2018-05-25T11:55:39.193Z,25.80
2018-05-25T11:58:10.263Z,25.95
2018-05-25T12:00:41.267Z,25.54
2018-05-25T12:03:12.592Z,24.65
2018-05-25T12:05:43.263Z,23.93
2018-05-25T12:08:13.891Z,23.92
2018-05-25T12:10:44.945Z,23.95
2018-05-25T12:13:15.860Z,23.81
2018-05-25T12:15:46.528Z,24.11
2018-05-25T12:18:17.554Z,23.68
2018-05-25T12:20:48.125Z,24.16
2018-05-25T12:23:18.607Z,24.35
2018-05-25T12:25:49.335Z,24.27
2018-05-25T12:28:19.844Z,24.60
2018-05-25T12:30:52.706Z,24.81
2018-05-25T12:33:23.277Z,24.52
2018-05-25T12:35:53.839Z,24.13
2018-05-25T12:38:25.560Z,23.49
2018-05-25T12:40:57.023Z,23.68
2018-05-25T12:43:27.600Z,23.35
2018-05-25T12:45:58.224Z,22.97
2018-05-25T12:48:28.416Z,23.01
2018-05-25T12:51:01.300Z,23.20
2018-05-25T12:53:32.645Z,23.93
2018-05-25T12:56:03.187Z,24.33
2018-05-25T12:58:35.545Z,24.02
2018-05-25T13:01:08.434Z,22.75
2018-05-25T13:03:41.159Z,22.16
2018-05-25T13:06:13.475Z,21.80
2018-05-25T13:08:44.061Z,22.05
2018-05-25T13:11:15.062Z,22.42
2018-05-25T13:13:46.664Z,22.63
2018-05-25T13:16:18.115Z,21.76
2018-05-25T13:18:50.442Z,21.89
2018-05-25T13:21:22.707Z,21.49
2018-05-25T13:23:54.799Z,21.55
2018-05-25T13:26:26.226Z,21.11
2018-05-25T13:28:57.617Z,20.72
2018-05-25T13:31:29.034Z,19.92
2018-05-25T13:34:00.571Z,19.92
2018-05-25T13:36:33.139Z,20.23
2018-05-25T13:39:05.955Z,19.90
2018-05-25T13:41:37.475Z,19.70
2018-05-25T13:44:09.172Z,19.94
2018-05-25T13:46:40.715Z,20.44
2018-05-25T13:49:12.919Z,20.99
2018-05-25T13:51:45.987Z,21.22
2018-05-25T13:54:18.287Z,21.29
2018-05-25T13:56:54.285Z,21.35
2018-05-25T13:59:25.691Z,21.69
2018-05-25T14:01:56.974Z,22.20
2018-05-25T14:04:28.672Z,22.15
2018-05-25T14:07:01.089Z,24.50
2018-05-25T14:09:33.495Z,26.09
2018-05-25T14:12:03.987Z,27.02
2018-05-25T14:14:34.493Z,27.54
2018-05-25T14:17:06.005Z,28.50
2018-05-25T14:19:36.498Z,28.25
2018-05-25T14:22:07.776Z,28.43
2018-05-25T14:24:38.579Z,28.00
2018-05-25T14:27:09.867Z,28.92
2018-05-25T14:29:42.460Z,28.76
2018-05-25T14:32:14.078Z,28.40
2018-05-25T14:34:46.422Z,27.92
2018-05-25T14:37:16.988Z,28.06
2018-05-25T14:39:47.551Z,27.54
2018-05-25T14:42:20.277Z,27.71
2018-05-25T14:44:52.969Z,27.33
2018-05-25T14:47:23.599Z,27.62
2018-05-25T14:49:56.413Z,27.62
2018-05-25T14:52:28.906Z,27.30
2018-05-25T14:55:00.415Z,26.32
2018-05-25T14:57:31.123Z,25.51
2018-05-25T15:00:06.375Z,25.04
2018-05-25T15:02:37.306Z,24.60
2018-05-25T15:05:08.780Z,25.12
2018-05-25T15:07:40.230Z,24.63
2018-05-25T15:10:11.138Z,24.62
2018-05-25T15:12:43.638Z,24.83
2018-05-25T15:15:16.321Z,24.45
2018-05-25T15:17:48.681Z,24.56
2018-05-25T15:20:20.149Z,24.08
2018-05-25T15:22:52.847Z,23.60
2018-05-25T15:25:24.950Z,24.05
2018-05-25T15:27:55.198Z,24.07
2018-05-25T15:30:28.895Z,24.05
2018-05-25T15:33:00.380Z,24.17
2018-05-25T15:35:32.891Z,24.19
2018-05-25T15:38:04.933Z,23.90
2018-05-25T15:40:36.003Z,24.59
2018-05-25T15:43:09.714Z,25.32
2018-05-25T15:45:41.254Z,25.19
2018-05-25T15:48:14.008Z,24.50
2018-05-25T15:50:44.524Z,24.83
2018-05-25T15:53:15.014Z,25.41
2018-05-25T15:55:46.892Z,25.58
2018-05-25T15:58:18.067Z,25.75
2018-05-25T16:00:49.583Z,26.14
2018-05-25T16:03:20.999Z,26.79
2018-05-25T16:05:53.315Z,27.27
2018-05-25T16:08:24.886Z,27.51
2018-05-25T16:10:56.015Z,28.16
2018-05-25T16:13:27.442Z,28.83
2018-05-25T16:15:59.907Z,29.25
2018-05-25T16:18:31.119Z,29.60
2018-05-25T16:21:02.575Z,29.76
2018-05-25T16:23:35.573Z,29.74
2018-05-25T16:26:07.358Z,29.75
2018-05-25T16:28:39.165Z,29.75
2018-05-25T16:31:10.319Z,29.46
2018-05-25T16:33:41.417Z,29.28
2018-05-25T16:36:13.264Z,29.27
2018-05-25T16:38:44.367Z,29.20
2018-05-25T16:41:15.467Z,29.05
2018-05-25T16:43:46.672Z,28.99
2018-05-25T16:46:17.731Z,28.84
2018-05-25T16:48:49.142Z,28.87
2018-05-25T16:51:20.287Z,28.75
2018-05-25T16:53:52.119Z,28.78
2018-05-25T16:56:24.508Z,29.00
2018-05-25T16:58:56.155Z,29.20
2018-05-25T17:01:28.414Z,28.85
2018-05-25T17:03:59.568Z,28.70
2018-05-25T17:06:30.627Z,29.27
2018-05-25T17:09:02.071Z,29.39
2018-05-25T17:11:33.209Z,29.66
2018-05-25T17:14:05.369Z,29.89
2018-05-25T17:16:37.882Z,30.41
2018-05-25T17:19:09.111Z,30.89
2018-05-25T17:21:40.433Z,31.64
2018-05-25T17:24:11.536Z,32.17
2018-05-25T17:26:42.924Z,32.40
2018-05-25T17:29:14.423Z,32.72
2018-05-25T17:31:45.543Z,32.96
2018-05-25T17:34:16.632Z,33.28
2018-05-25T17:36:48.301Z,33.42
2018-05-25T17:39:19.690Z,33.59
2018-05-25T17:41:50.811Z,33.63
2018-05-25T17:44:22.170Z,33.80
2018-05-25T17:46:53.587Z,33.99
2018-05-25T17:49:25.427Z,33.91
2018-05-25T17:51:56.825Z,33.87
2018-05-25T17:54:29.085Z,33.60
2018-05-25T17:57:00.239Z,33.48
2018-05-25T17:59:31.507Z,33.90
2018-05-25T18:02:04.565Z,34.15
2018-05-25T18:04:35.905Z,34.47
2018-05-25T18:07:07.410Z,34.72
2018-05-25T18:09:38.490Z,35.04
2018-05-25T18:12:09.729Z,35.27
2018-05-25T18:14:41.311Z,35.54
2018-05-25T18:17:12.463Z,35.95
2018-05-25T18:19:43.795Z,35.99
2018-05-25T18:22:14.998Z,36.40
2018-05-25T18:24:46.107Z,36.88
2018-05-25T18:27:17.515Z,37.18
2018-05-25T18:29:48.867Z,37.24
2018-05-25T18:32:20.741Z,37.50
2018-05-25T18:34:52.220Z,37.91
2018-05-25T18:37:24.256Z,38.04
2018-05-25T18:39:56.345Z,38.26
2018-05-25T18:42:28.893Z,38.43
2018-05-25T18:45:00.095Z,38.52
2018-05-25T18:47:32.382Z,38.75
2018-05-25T18:50:03.918Z,39.03
2018-05-25T18:52:35.053Z,39.24
2018-05-25T18:55:06.252Z,39.43
2018-05-25T18:57:37.333Z,39.80
2018-05-25T19:00:08.813Z,39.88
2018-05-25T19:02:39.399Z,40.10
2018-05-25T19:05:11.680Z,40.35
2018-05-25T19:07:42.815Z,40.44
2018-05-25T19:10:14.833Z,40.58
2018-05-25T19:12:46.851Z,40.73
2018-05-25T19:15:19.275Z,40.83
2018-05-25T19:17:50.320Z,40.96
2018-05-25T19:20:21.464Z,41.15
2018-05-25T19:22:52.999Z,41.13
2018-05-25T19:25:25.872Z,41.20
2018-05-25T19:27:56.998Z,41.19
2018-05-25T19:30:28.385Z,41.18
2018-05-25T19:32:58.674Z,41.19
2018-05-25T19:35:29.842Z,41.27
2018-05-25T19:38:01.906Z,41.44
2018-05-25T19:40:33.931Z,41.46
2018-05-25T19:43:05.347Z,41.68
2018-05-25T19:45:36.551Z,41.95
2018-05-25T19:48:07.897Z,42.00
2018-05-25T19:50:39.020Z,42.12
2018-05-25T19:53:10.523Z,42.17
2018-05-25T19:55:42.035Z,42.09
2018-05-25T19:58:14.086Z,42.27
2018-05-25T20:00:44.524Z,42.34
2018-05-25T20:03:16.839Z,42.67
2018-05-25T20:05:47.058Z,42.67
2018-05-25T20:08:17.312Z,42.74
2018-05-25T20:10:48.415Z,42.84
2018-05-25T20:13:18.723Z,43.02
2018-05-25T20:15:50.125Z,43.27
2018-05-25T20:18:21.068Z,43.36
2018-05-25T20:20:51.272Z,43.61
2018-05-25T20:23:21.620Z,43.53
2018-05-25T20:25:51.877Z,43.61
2018-05-25T20:28:22.397Z,43.44
2018-05-25T20:30:52.782Z,43.56
2018-05-25T20:33:22.954Z,43.62
2018-05-25T20:35:54.378Z,43.71
2018-05-25T20:38:24.647Z,43.85
2018-05-25T20:40:54.943Z,43.88
2018-05-25T20:43:25.372Z,43.95
2018-05-25T20:45:55.604Z,44.14
2018-05-25T20:48:29.136Z,44.15
2018-05-25T20:50:59.375Z,44.14
2018-05-25T20:53:31.680Z,44.08
2018-05-25T20:56:03.773Z,43.81
2018-05-25T20:58:35.940Z,43.99
2018-05-25T21:01:07.332Z,43.88
2018-05-25T21:03:38.455Z,44.16
2018-05-25T21:06:10.179Z,44.28
2018-05-25T21:08:40.375Z,44.39
2018-05-25T21:11:11.614Z,44.44
2018-05-25T21:13:42.995Z,44.39
2018-05-25T21:16:14.052Z,44.37
2018-05-25T21:18:45.207Z,44.51
2018-05-25T21:21:16.863Z,44.55
2018-05-25T21:23:48.075Z,44.42
2018-05-25T21:26:19.188Z,44.66
2018-05-25T21:28:50.483Z,44.46
2018-05-25T21:31:21.611Z,44.57
2018-05-25T21:33:53.727Z,44.89
2018-05-25T21:36:24.952Z,45.01
2018-05-25T21:38:56.104Z,45.14
2018-05-25T21:41:28.685Z,45.09
2018-05-25T21:43:59.886Z,45.21
2018-05-25T21:46:31.040Z,45.16
2018-05-25T21:49:02.129Z,45.32
2018-05-25T21:51:33.215Z,45.68
2018-05-25T21:54:04.626Z,45.65
2018-05-25T21:56:35.881Z,45.47
2018-05-25T21:59:07.508Z,45.61
2018-05-25T22:01:38.985Z,45.81
2018-05-25T22:04:09.653Z,45.77
2018-05-25T22:06:40.781Z,46.09
2018-05-25T22:09:11.950Z,46.03
2018-05-25T22:11:44.015Z,46.27
2018-05-25T22:14:16.303Z,46.22
2018-05-25T22:16:47.488Z,46.31
2018-05-25T22:19:18.831Z,46.38
2018-05-25T22:21:50.792Z,46.59
2018-05-25T22:24:21.874Z,46.71
2018-05-25T22:26:54.335Z,46.54
2018-05-25T22:29:25.423Z,46.79
2018-05-25T22:31:57.495Z,46.88
2018-05-25T22:34:29.119Z,46.68
2018-05-25T22:36:59.288Z,46.65
2018-05-25T22:39:31.625Z,46.69
2018-05-25T22:42:00.429Z,46.63
2018-05-25T22:44:42.717Z,46.84
2018-05-25T22:47:31.461Z,47.17
2018-05-25T22:50:20.603Z,47.32
2018-05-25T22:53:00.287Z,47.38
2018-05-25T22:55:31.048Z,47.62
2018-05-25T22:58:02.136Z,47.78
2018-05-25T23:00:33.263Z,47.90
2018-05-25T23:03:05.850Z,48.00
2018-05-25T23:05:37.242Z,47.84
2018-05-25T23:08:08.626Z,47.63
2018-05-25T23:10:39.989Z,47.53
2018-05-25T23:13:11.474Z,47.75
2018-05-25T23:15:43.150Z,48.13
2018-05-25T23:18:15.450Z,48.16
2018-05-25T23:20:46.801Z,48.18
2018-05-25T23:23:19.071Z,48.30
2018-05-25T23:25:50.281Z,48.42
2018-05-25T23:28:23.200Z,48.33
2018-05-25T23:30:55.431Z,48.38
2018-05-25T23:33:27.050Z,48.35
2018-05-25T23:35:58.439Z,48.28
2018-05-25T23:38:31.014Z,48.42
2018-05-25T23:41:03.703Z,48.56
2018-05-25T23:43:36.233Z,48.65
2018-05-25T23:46:07.788Z,48.63
2018-05-25T23:48:44.748Z,48.49
2018-05-25T23:51:17.059Z,48.71
2018-05-25T23:53:48.434Z,48.87
2018-05-25T23:58:56.364Z,48.96
